Time;durP1;ratioP1;P1;durP2;ratioP2;P2;SDS_P1;SDS_P2;PMS_P1;PMS_P2;Temp;Humidity;BMP_temperature;BMP_pressure;BME280_temperature;BME280_humidity;BME280_pressure;Samples;Min_cycle;Max_cycle;Signal;HPM_P1;HPM_P2
2021/11/04 00:06:22;;;;;;;0.55;0.50;;;23.00;60.80;;;;;;31392153;28;20045;-46
2021/11/04 00:21:24;;;;;;;0.30;0.30;;;22.90;60.80;;;;;;31459607;28;20041;-44
2021/11/04 00:36:27;;;;;;;0.40;0.20;;;22.90;61.00;;;;;;31382484;28;20049;-42
2021/11/04 00:51:29;;;;;;;0.17;0.17;;;22.90;61.20;;;;;;31258547;28;20580;-44
2021/11/04 01:06:32;;;;;;;0.15;0.13;;;22.90;61.50;;;;;;31256798;28;20072;-43
2021/11/04 01:21:34;;;;;;;0.10;0.10;;;22.90;61.70;;;;;;31254743;28;20069;-42
2021/11/04 01:36:36;;;;;;;0.30;0.20;;;23.20;62.10;;;;;;31253774;28;20046;-42
2021/11/04 01:51:38;;;;;;;0.10;0.10;;;23.50;61.80;;;;;;31252629;28;20137;-36
2021/11/04 02:06:47;;;;;;;0.03;0.03;;;23.40;61.50;;;;;;31252173;28;20046;-37
2021/11/04 02:22:00;;;;;;;0.00;0.00;;;23.40;61.70;;;;;;31249093;28;20049;-44
2021/11/04 02:37:03;;;;;;;0.10;0.10;;;23.30;61.70;;;;;;31261845;28;20049;-37
2021/11/04 02:52:05;;;;;;;0.10;0.10;;;23.20;61.70;;;;;;31273953;28;20067;-46
2021/11/04 03:07:08;;;;;;;0.00;0.00;;;23.20;61.80;;;;;;31270875;28;20081;-43
2021/11/04 03:22:10;;;;;;;0.20;0.20;;;23.10;61.70;;;;;;31269562;28;20042;-43
2021/11/04 03:37:15;;;;;;;0.10;0.10;;;23.00;61.60;;;;;;31267354;28;20109;-42
2021/11/04 03:52:19;;;;;;;0.10;0.10;;;23.00;61.70;;;;;;31265815;28;20070;-45
2021/11/04 04:07:28;;;;;;;0.10;0.10;;;23.00;61.70;;;;;;31264040;28;20057;-38
2021/11/04 04:22:30;;;;;;;0.10;0.10;;;22.90;61.90;;;;;;31262082;28;20046;-43
2021/11/04 04:37:33;;;;;;;0.08;0.08;;;22.90;61.90;;;;;;31260354;28;20057;-43
2021/11/04 04:52:35;;;;;;;3.95;0.80;;;22.90;62.00;;;;;;31434259;28;20094;-44
2021/11/04 05:07:37;;;;;;;10.13;4.47;;;23.20;61.60;;;;;;31286715;28;20101;-37
2021/11/04 05:22:39;;;;;;;9.85;5.03;;;23.30;59.10;;;;;;31255114;28;20065;-36
2021/11/04 05:37:42;;;;;;;12.80;7.30;;;23.10;59.00;;;;;;31332215;28;20529;-35
2021/11/04 05:52:44;;;;;;;9.63;7.25;;;23.10;57.90;;;;;;31375679;28;20049;-35
2021/11/04 06:07:46;;;;;;;10.90;7.28;;;22.90;57.90;;;;;;31373899;28;20050;-46
2021/11/04 06:22:48;;;;;;;14.30;7.13;;;23.00;57.50;;;;;;31372403;28;20076;-35
2021/11/04 06:37:52;;;;;;;13.48;7.47;;;23.20;56.50;;;;;;31370033;28;20057;-35
2021/11/04 06:53:09;;;;;;;21.58;9.77;;;23.20;56.40;;;;;;31371487;28;20128;-35
2021/11/04 07:08:20;;;;;;;11.25;8.55;;;23.10;56.00;;;;;;31364838;28;20120;-36
2021/11/04 07:23:36;;;;;;;12.15;8.55;;;23.00;56.10;;;;;;31381997;28;20042;-36
2021/11/04 07:38:39;;;;;;;13.35;7.80;;;23.00;56.70;;;;;;31389710;28;20050;-44
2021/11/04 07:53:41;;;;;;;11.90;7.72;;;23.20;56.30;;;;;;31388122;28;20045;-48
2021/11/04 08:08:43;;;;;;;11.73;8.35;;;23.30;56.00;;;;;;31385953;28;20065;-45
2021/11/04 08:23:45;;;;;;;12.60;8.45;;;23.20;56.20;;;;;;31384736;28;20107;-45
2021/11/04 08:38:48;;;;;;;10.73;8.30;;;23.10;56.10;;;;;;31381926;28;20057;-36
2021/11/04 08:53:50;;;;;;;8.95;7.15;;;23.00;56.20;;;;;;31380686;28;20049;-37
2021/11/04 09:09:12;;;;;;;9.98;7.45;;;23.00;56.70;;;;;;31377879;28;20071;-45
2021/11/04 09:24:14;;;;;;;8.25;6.72;;;23.20;56.30;;;;;;31377536;28;20057;-44
2021/11/04 09:39:16;;;;;;;15.05;7.50;;;23.30;56.20;;;;;;31372601;28;20069;-41
2021/11/04 09:54:19;;;;;;;15.88;8.75;;;23.20;56.40;;;;;;31371997;28;20179;-45
2021/11/04 10:09:27;;;;;;;22.08;7.32;;;23.30;57.30;;;;;;31371748;28;20129;-36
2021/11/04 10:24:29;;;;;;;13.07;6.97;;;23.20;57.70;;;;;;31364845;28;20486;-37
2021/11/04 10:39:35;;;;;;;10.23;6.90;;;23.30;57.90;;;;;;31013240;28;10000278;-43
2021/11/04 10:54:45;;;;;;;6.43;5.57;;;23.30;57.80;;;;;;31367433;28;20056;-34
2021/11/04 11:09:48;;;;;;;7.95;5.53;;;23.20;59.40;;;;;;31386317;28;20041;-34
2021/11/04 11:24:50;;;;;;;11.15;5.53;;;23.00;60.70;;;;;;31384265;28;20061;-43
2021/11/04 11:40:26;;;;;;;7.28;5.18;;;22.90;61.00;;;;;;31381133;28;20088;-41
2021/11/04 11:55:46;;;;;;;8.05;4.78;;;23.00;60.90;;;;;;31367163;28;20068;-33
2021/11/04 12:10:48;;;;;;;10.93;4.90;;;22.90;61.30;;;;;;31377283;28;20064;-36
2021/11/04 12:25:50;;;;;;;10.13;5.65;;;22.90;61.50;;;;;;31384240;28;20092;-45
2021/11/04 12:41:06;;;;;;;7.40;4.72;;;23.00;60.80;;;;;;31376444;28;20085;-45
2021/11/04 12:56:09;;;;;;;8.50;5.10;;;23.00;60.60;;;;;;31379870;28;20099;-45
2021/11/04 13:11:18;;;;;;;9.80;4.65;;;22.90;60.80;;;;;;31378797;28;20100;-43
2021/11/04 13:26:20;;;;;;;9.90;4.80;;;22.90;61.30;;;;;;31416381;28;20045;-36
2021/11/04 13:41:37;;;;;;;8.88;4.97;;;22.80;60.70;;;;;;31431860;28;20077;-36
2021/11/04 13:56:41;;;;;;;14.73;5.28;;;22.90;60.00;;;;;;31414922;28;20045;-36
2021/11/04 14:12:03;;;;;;;13.02;4.80;;;23.20;60.60;;;;;;31282768;28;20052;-40
2021/11/04 14:27:05;;;;;;;12.48;5.15;;;23.40;59.50;;;;;;31378219;28;20042;-40
2021/11/04 14:42:08;;;;;;;13.00;5.13;;;23.40;60.70;;;;;;31368051;28;20081;-39
2021/11/04 14:57:10;;;;;;;23.17;13.70;;;23.40;61.50;;;;;;31368897;28;20103;-37
2021/11/04 15:12:12;;;;;;;25.75;16.60;;;23.30;61.60;;;;;;31368135;28;20052;-37
2021/11/04 15:27:14;;;;;;;33.97;15.85;;;23.20;61.80;;;;;;31368059;28;20073;-36
2021/11/04 15:42:16;;;;;;;30.17;15.43;;;23.10;61.50;;;;;;31029680;28;10000866;-36
2021/11/04 15:57:18;;;;;;;24.65;12.95;;;23.10;60.90;;;;;;31400200;28;20049;-36
2021/11/04 16:12:20;;;;;;;25.23;13.45;;;23.10;61.00;;;;;;31379375;28;20053;-45
2021/11/04 16:27:22;;;;;;;25.67;12.85;;;23.00;61.70;;;;;;31416803;28;20045;-44
2021/11/04 16:42:25;;;;;;;23.50;12.40;;;23.00;61.60;;;;;;31372581;28;20076;-36
2021/11/04 16:57:27;;;;;;;23.83;11.63;;;23.00;61.80;;;;;;31372347;28;20053;-35
2021/11/04 17:12:29;;;;;;;16.45;11.35;;;23.00;62.10;;;;;;31382787;28;20056;-38
2021/11/04 17:27:32;;;;;;;17.25;11.07;;;23.00;62.00;;;;;;31418531;28;20101;-45
2021/11/04 17:42:34;;;;;;;19.98;10.95;;;22.90;62.20;;;;;;31366697;28;20049;-44
2021/11/04 17:57:37;;;;;;;21.77;10.45;;;22.90;62.30;;;;;;31371166;28;20057;-43
2021/11/04 18:12:39;;;;;;;19.70;10.55;;;22.80;62.60;;;;;;31398866;28;20041;-41
2021/11/04 18:27:41;;;;;;;14.65;9.95;;;22.90;62.70;;;;;;31407272;28;20049;-43
2021/11/04 18:42:44;;;;;;;15.63;9.73;;;22.90;62.90;;;;;;31372876;28;20045;-44
2021/11/04 18:57:46;;;;;;;23.63;10.43;;;23.00;62.60;;;;;;31421952;28;20053;-41
2021/11/04 19:12:48;;;;;;;15.30;8.73;;;23.00;62.70;;;;;;31407325;28;20052;-37
2021/11/04 19:27:52;;;;;;;23.38;11.48;;;23.00;62.30;;;;;;31348465;28;20033;-47
2021/11/04 19:42:54;;;;;;;19.20;12.95;;;23.20;62.30;;;;;;31328783;28;20041;-51
2021/11/04 19:57:56;;;;;;;19.20;13.55;;;23.20;62.60;;;;;;31427257;28;20128;-43
2021/11/04 20:12:58;;;;;;;22.05;12.40;;;23.10;63.60;;;;;;31377046;28;20524;-43
2021/11/04 20:28:01;;;;;;;17.38;11.43;;;23.30;62.70;;;;;;31370043;28;20037;-36
2021/11/04 20:43:03;;;;;;;16.73;10.52;;;23.30;63.00;;;;;;31373090;28;20061;-46
2021/11/04 20:58:05;;;;;;;17.08;10.05;;;23.30;62.50;;;;;;31374356;28;20064;-44
2021/11/04 21:13:08;;;;;;;12.93;9.20;;;23.40;62.50;;;;;;31367136;28;20068;-39
2021/11/04 21:28:11;;;;;;;14.32;9.02;;;23.30;62.50;;;;;;31364683;28;20049;-37
2021/11/04 21:43:16;;;;;;;45.13;21.73;;;23.40;62.50;;;;;;31366042;28;20053;-45
2021/11/04 21:58:19;;;;;;;10.50;8.15;;;23.40;62.00;;;;;;31366817;28;20045;-44
2021/11/04 22:13:24;;;;;;;7.60;6.38;;;23.30;62.50;;;;;;31371281;28;20061;-36
2021/11/04 22:28:28;;;;;;;4.22;3.28;;;23.30;62.50;;;;;;31372514;28;20061;-45
2021/11/04 22:43:30;;;;;;;8.82;2.45;;;23.20;62.70;;;;;;31370602;28;20046;-49
2021/11/04 22:58:33;;;;;;;2.45;1.63;;;23.20;62.70;;;;;;31411231;28;20045;-44
2021/11/04 23:13:37;;;;;;;1.30;1.00;;;23.10;62.90;;;;;;31393041;28;20128;-45
2021/11/04 23:28:39;;;;;;;1.95;0.60;;;23.00;63.10;;;;;;31391984;28;20045;-45
2021/11/04 23:43:41;;;;;;;1.38;0.60;;;23.00;63.30;;;;;;31389172;28;20129;-39
2021/11/04 23:58:43;;;;;;;3.88;0.40;;;23.00;63.40;;;;;;31389854;28;20076;-37
